Time;durP1;ratioP1;P1;durP2;ratioP2;P2;SDS_P1;SDS_P2;PMS_P1;PMS_P2;Temp;Humidity;BMP_temperature;BMP_pressure;BME280_temperature;BME280_humidity;BME280_pressure;Samples;Min_cycle;Max_cycle;Signal;HPM_P1;HPM_P2
2021/08/01 00:02:15;;;;;;;27.80;13.63;;;14.50;99.90;;;;;;5004361;28;20039;-67
2021/08/01 00:04:41;;;;;;;25.85;13.80;;;14.60;99.90;;;;;;5006659;28;20029;-67
2021/08/01 00:07:07;;;;;;;25.55;13.63;;;14.70;99.90;;;;;;5004715;28;20488;-67
2021/08/01 00:09:33;;;;;;;27.15;14.25;;;14.80;99.90;;;;;;5003950;28;20053;-67
2021/08/01 00:11:58;;;;;;;28.50;14.48;;;14.80;99.90;;;;;;5005831;28;20032;-67
2021/08/01 00:14:24;;;;;;;27.33;14.27;;;14.90;99.90;;;;;;5002918;28;20021;-67
2021/08/01 00:16:49;;;;;;;26.17;13.13;;;14.90;99.90;;;;;;4991023;28;20049;-67
2021/08/01 00:19:15;;;;;;;25.67;13.30;;;14.90;99.90;;;;;;5001488;28;20026;-67
2021/08/01 00:21:40;;;;;;;26.55;11.65;;;14.70;99.90;;;;;;5004521;28;20037;-67
2021/08/01 00:24:06;;;;;;;26.67;13.48;;;14.80;99.90;;;;;;5006751;28;20354;-68
2021/08/01 00:26:31;;;;;;;29.25;12.68;;;14.80;99.90;;;;;;5005334;28;20061;-66
2021/08/01 00:28:57;;;;;;;26.90;13.52;;;14.80;99.90;;;;;;5008559;28;20050;-67
2021/08/01 00:31:23;;;;;;;24.85;12.43;;;14.70;99.90;;;;;;5001690;28;20397;-66
2021/08/01 00:33:48;;;;;;;23.65;12.90;;;14.70;99.90;;;;;;5003874;28;20033;-66
2021/08/01 00:36:14;;;;;;;25.48;12.75;;;14.50;99.90;;;;;;5003985;28;20489;-66
2021/08/01 00:38:40;;;;;;;24.45;13.07;;;14.40;99.90;;;;;;5003588;28;20040;-66
2021/08/01 00:41:06;;;;;;;26.13;12.45;;;14.30;99.90;;;;;;5006723;28;20045;-67
2021/08/01 00:43:32;;;;;;;24.38;11.93;;;14.20;99.90;;;;;;5006191;28;20486;-67
2021/08/01 00:45:58;;;;;;;25.40;13.10;;;14.10;99.90;;;;;;5003333;28;20030;-67
2021/08/01 00:48:26;;;;;;;23.88;12.55;;;14.20;99.90;;;;;;5012288;28;20078;-67
2021/08/01 00:50:54;;;;;;;29.15;13.93;;;14.00;99.90;;;;;;5004698;28;20497;-67
2021/08/01 00:53:19;;;;;;;25.92;13.82;;;14.10;99.90;;;;;;5002548;28;20618;-67
2021/08/01 00:55:45;;;;;;;27.73;13.98;;;14.00;99.90;;;;;;5003329;28;20687;-67
2021/08/01 00:58:11;;;;;;;25.33;13.77;;;13.90;99.90;;;;;;5004110;28;20033;-67
2021/08/01 01:03:32;;;;;;;26.42;13.57;;;14.10;99.90;;;;;;5004697;28;20390;-67
2021/08/01 01:06:06;;;;;;;30.00;14.95;;;14.10;99.90;;;;;;4996077;28;20119;-67
2021/08/01 01:08:40;;;;;;;32.08;15.45;;;14.20;99.90;;;;;;5002970;28;20109;-67
2021/08/01 01:11:06;;;;;;;29.33;14.15;;;14.30;99.90;;;;;;5002788;28;20173;-67
2021/08/01 01:13:38;;;;;;;28.90;14.68;;;14.30;99.90;;;;;;5003750;28;20030;-67
2021/08/01 01:16:04;;;;;;;30.17;14.45;;;14.40;99.90;;;;;;5004454;28;20062;-67
2021/08/01 01:18:38;;;;;;;29.42;14.10;;;14.20;99.90;;;;;;5005596;28;20050;-67
2021/08/01 01:21:04;;;;;;;30.00;14.15;;;14.30;99.90;;;;;;5004306;28;20037;-67
2021/08/01 01:23:29;;;;;;;30.38;14.43;;;14.20;99.90;;;;;;5003980;28;20381;-67
2021/08/01 01:26:00;;;;;;;28.92;14.52;;;14.40;99.90;;;;;;5001631;28;20068;-67
2021/08/01 01:28:59;;;;;;;30.33;15.48;;;14.50;99.90;;;;;;5006991;28;20034;-67
2021/08/01 01:31:44;;;;;;;32.33;14.30;;;14.30;99.90;;;;;;5005381;28;20029;-67
2021/08/01 01:34:24;;;;;;;34.22;14.45;;;14.30;99.90;;;;;;5008049;28;20109;-68
2021/08/01 01:36:51;;;;;;;31.20;15.55;;;14.30;99.90;;;;;;5004467;28;20431;-67
2021/08/01 01:39:19;;;;;;;32.03;14.55;;;14.10;99.90;;;;;;4989719;28;20026;-67
2021/08/01 01:41:46;;;;;;;29.25;14.50;;;14.00;99.90;;;;;;4996405;28;20422;-67
2021/08/01 01:44:13;;;;;;;30.98;14.02;;;14.00;99.90;;;;;;5006858;28;20312;-67
2021/08/01 01:46:41;;;;;;;32.03;15.05;;;14.00;99.90;;;;;;5006884;28;20462;-68
2021/08/01 01:49:10;;;;;;;35.22;15.80;;;14.00;99.90;;;;;;5007446;28;20084;-68
2021/08/01 01:51:37;;;;;;;33.90;14.03;;;14.00;99.90;;;;;;5007814;28;20405;-68
2021/08/01 01:54:05;;;;;;;32.50;14.75;;;14.10;99.90;;;;;;5005813;28;20029;-68
2021/08/01 01:56:34;;;;;;;33.88;15.88;;;14.20;99.90;;;;;;5008384;28;20033;-68
2021/08/01 01:59:01;;;;;;;33.83;15.05;;;14.20;99.90;;;;;;4992377;28;20033;-68
2021/08/01 02:01:26;;;;;;;32.58;15.18;;;14.30;99.90;;;;;;5008959;28;20046;-68
2021/08/01 02:03:52;;;;;;;33.97;16.55;;;14.30;99.90;;;;;;5006866;28;20041;-68
2021/08/01 02:06:18;;;;;;;34.67;15.38;;;14.20;99.90;;;;;;5007772;28;20116;-68
2021/08/01 02:08:54;;;;;;;31.83;15.70;;;14.20;99.90;;;;;;5006450;28;20548;-68
2021/08/01 02:11:23;;;;;;;33.15;14.55;;;14.40;99.90;;;;;;4989522;28;20030;-68
2021/08/01 02:14:11;;;;;;;33.50;15.07;;;14.40;99.90;;;;;;5006422;28;20441;-68
2021/08/01 02:16:43;;;;;;;34.00;15.15;;;14.50;99.90;;;;;;5006075;28;20100;-67
2021/08/01 02:19:11;;;;;;;32.45;16.05;;;14.50;99.90;;;;;;4987813;28;20038;-68
2021/08/01 02:21:39;;;;;;;34.63;16.35;;;14.50;99.90;;;;;;5008747;28;20153;-67
2021/08/01 02:24:08;;;;;;;34.25;15.48;;;14.40;99.90;;;;;;5007391;28;20109;-68
2021/08/01 02:26:35;;;;;;;47.22;17.23;;;14.40;99.90;;;;;;5007909;28;20045;-67
2021/08/01 02:29:03;;;;;;;35.58;17.13;;;14.40;99.90;;;;;;5007014;28;20029;-68
2021/08/01 02:31:29;;;;;;;38.03;16.20;;;14.30;99.90;;;;;;5008037;28;20497;-67
2021/08/01 02:33:55;;;;;;;34.83;15.82;;;14.50;99.90;;;;;;5007154;28;20073;-67
2021/08/01 02:36:24;;;;;;;34.63;15.32;;;14.50;99.90;;;;;;5003718;28;20041;-68
2021/08/01 02:38:53;;;;;;;37.20;16.17;;;14.60;99.90;;;;;;5005166;28;20481;-68
2021/08/01 02:41:38;;;;;;;33.95;16.38;;;14.40;99.90;;;;;;5006606;28;20513;-67
2021/08/01 02:44:15;;;;;;;39.97;16.42;;;14.40;99.90;;;;;;5006072;28;20084;-67
2021/08/01 02:46:41;;;;;;;34.08;16.02;;;14.50;99.90;;;;;;5007885;28;20034;-68
2021/08/01 02:49:14;;;;;;;32.15;15.13;;;14.50;99.90;;;;;;5007031;28;21027;-67
2021/08/01 02:51:40;;;;;;;35.15;15.93;;;14.60;99.90;;;;;;5007022;28;20100;-67
2021/08/01 02:54:08;;;;;;;30.85;14.55;;;14.70;99.90;;;;;;5006493;28;20550;-67
2021/08/01 02:56:35;;;;;;;33.97;16.10;;;14.80;99.90;;;;;;5005795;28;20077;-68
2021/08/01 02:59:03;;;;;;;31.95;14.98;;;14.70;99.90;;;;;;5007807;28;20018;-67
2021/08/01 03:01:31;;;;;;;33.45;15.20;;;14.80;99.90;;;;;;5004736;28;20057;-66
2021/08/01 03:03:58;;;;;;;30.75;15.05;;;14.90;99.90;;;;;;5005851;28;20469;-67
2021/08/01 03:06:24;;;;;;;31.42;14.05;;;15.00;99.90;;;;;;5006646;28;20038;-66
2021/08/01 03:09:01;;;;;;;31.58;15.32;;;14.90;99.90;;;;;;5007599;28;20555;-67
2021/08/01 03:11:30;;;;;;;29.57;14.43;;;14.90;99.90;;;;;;5004120;28;20048;-68
2021/08/01 03:13:56;;;;;;;31.00;14.77;;;15.00;99.90;;;;;;5007041;28;20014;-67
2021/08/01 03:16:21;;;;;;;34.50;14.85;;;14.80;99.90;;;;;;4986526;28;20525;-67
2021/08/01 03:18:47;;;;;;;35.92;16.00;;;14.80;99.90;;;;;;5006443;28;20045;-67
2021/08/01 03:21:13;;;;;;;30.77;15.38;;;14.90;99.90;;;;;;5004947;28;20069;-67
2021/08/01 03:23:38;;;;;;;34.08;15.88;;;14.80;99.90;;;;;;5006662;28;20101;-68
2021/08/01 03:26:04;;;;;;;28.30;14.30;;;14.80;99.90;;;;;;4991571;28;20092;-68
2021/08/01 03:28:29;;;;;;;35.42;14.70;;;14.80;99.90;;;;;;5007486;28;20021;-67
2021/08/01 03:30:55;;;;;;;30.42;14.38;;;14.90;99.90;;;;;;5007298;28;20469;-67
2021/08/01 03:33:20;;;;;;;29.17;13.77;;;14.70;99.90;;;;;;5006128;28;20038;-67
2021/08/01 03:35:46;;;;;;;34.05;15.15;;;14.70;99.90;;;;;;5006718;28;20022;-67
2021/08/01 03:38:13;;;;;;;33.50;14.57;;;14.60;99.90;;;;;;5005125;28;20069;-67
2021/08/01 03:40:38;;;;;;;29.50;14.63;;;14.60;99.90;;;;;;5005463;28;20030;-67
2021/08/01 03:43:04;;;;;;;28.60;14.80;;;14.70;99.90;;;;;;5001619;28;20029;-68
2021/08/01 03:45:30;;;;;;;30.38;15.13;;;14.60;99.90;;;;;;5005923;28;20076;-67
2021/08/01 03:47:55;;;;;;;32.95;15.80;;;14.70;99.90;;;;;;5004273;28;20041;-67
2021/08/01 03:50:21;;;;;;;32.15;14.80;;;14.70;99.90;;;;;;5007900;28;20784;-68
2021/08/01 03:52:46;;;;;;;32.90;16.45;;;14.60;99.90;;;;;;5007133;28;20030;-68
2021/08/01 03:55:12;;;;;;;34.80;16.15;;;14.70;99.90;;;;;;5005051;28;20030;-67
2021/08/01 03:57:39;;;;;;;33.50;15.73;;;14.70;99.90;;;;;;5007035;28;20032;-68
2021/08/01 04:00:08;;;;;;;35.10;15.98;;;14.80;99.90;;;;;;5005529;28;20052;-67
2021/08/01 04:02:37;;;;;;;36.67;16.27;;;14.80;99.90;;;;;;5002867;28;20034;-67
2021/08/01 04:05:05;;;;;;;36.03;15.75;;;14.80;99.90;;;;;;4999977;28;20030;-67
2021/08/01 04:07:30;;;;;;;30.15;15.77;;;14.80;99.90;;;;;;4987747;28;20065;-67
2021/08/01 04:09:56;;;;;;;37.75;16.35;;;14.80;99.90;;;;;;5005792;28;20061;-67
2021/08/01 04:12:22;;;;;;;33.60;16.38;;;14.80;99.90;;;;;;5005077;28;20045;-67
2021/08/01 04:14:48;;;;;;;36.92;16.10;;;14.90;99.90;;;;;;5006153;28;20022;-67
2021/08/01 04:17:17;;;;;;;36.05;16.30;;;14.90;99.90;;;;;;5004580;28;20042;-67
2021/08/01 04:19:44;;;;;;;36.22;16.38;;;14.90;99.90;;;;;;5005693;28;20026;-67
2021/08/01 04:22:09;;;;;;;33.05;16.00;;;14.90;99.90;;;;;;5004719;28;20046;-67
2021/08/01 04:24:35;;;;;;;35.20;16.23;;;14.90;99.90;;;;;;5006199;28;20091;-67
2021/08/01 04:27:00;;;;;;;34.10;16.92;;;15.00;99.90;;;;;;5003103;28;20072;-67
2021/08/01 04:29:26;;;;;;;36.65;15.65;;;15.10;99.90;;;;;;5003683;28;20030;-67
2021/08/01 04:31:51;;;;;;;36.10;16.17;;;15.10;99.90;;;;;;4993041;28;20028;-67
2021/08/01 04:34:18;;;;;;;35.40;16.25;;;15.10;99.90;;;;;;5005437;28;20523;-67
2021/08/01 04:36:44;;;;;;;31.38;14.63;;;15.10;99.90;;;;;;5006264;28;20099;-68
2021/08/01 04:39:09;;;;;;;34.33;15.90;;;15.10;99.90;;;;;;5004846;28;20034;-68
2021/08/01 04:41:35;;;;;;;32.30;15.50;;;15.20;99.90;;;;;;5004129;28;20078;-67
2021/08/01 04:44:02;;;;;;;30.65;15.40;;;15.30;99.90;;;;;;5002910;28;20021;-67
2021/08/01 04:46:27;;;;;;;29.42;14.32;;;15.30;99.90;;;;;;5005470;28;20470;-67
2021/08/01 04:48:53;;;;;;;30.85;15.55;;;15.40;99.90;;;;;;5004936;28;20080;-67
2021/08/01 04:51:19;;;;;;;31.83;15.18;;;15.30;99.90;;;;;;5006900;28;20030;-67
2021/08/01 04:53:44;;;;;;;29.60;14.55;;;15.20;99.90;;;;;;5006275;28;20097;-68
2021/08/01 04:56:10;;;;;;;33.35;15.38;;;15.20;99.90;;;;;;4987039;28;20026;-68
2021/08/01 04:58:36;;;;;;;29.60;14.88;;;15.20;99.90;;;;;;5004070;28;20026;-68
2021/08/01 05:01:09;;;;;;;30.08;14.55;;;15.20;99.90;;;;;;5003346;28;20033;-68
2021/08/01 05:03:35;;;;;;;30.52;14.70;;;15.10;99.90;;;;;;5004210;28;20053;-66
2021/08/01 05:06:00;;;;;;;30.58;14.60;;;15.30;99.90;;;;;;4984039;28;20038;-66
2021/08/01 05:08:26;;;;;;;33.05;15.32;;;15.40;99.90;;;;;;4986894;28;20037;-67
2021/08/01 05:10:51;;;;;;;27.70;13.98;;;15.50;99.90;;;;;;5005875;28;20030;-66
2021/08/01 05:13:17;;;;;;;29.55;14.38;;;15.50;99.90;;;;;;5003598;28;20347;-67
2021/08/01 05:15:44;;;;;;;33.25;14.93;;;15.50;99.90;;;;;;5005523;28;20164;-68
2021/08/01 05:18:09;;;;;;;27.20;14.10;;;15.50;99.90;;;;;;4986907;28;20077;-67
2021/08/01 05:20:43;;;;;;;29.75;14.45;;;15.60;99.90;;;;;;5001416;28;20437;-67
2021/08/01 05:23:09;;;;;;;32.15;14.73;;;15.60;99.90;;;;;;5003883;28;20099;-67
2021/08/01 05:25:35;;;;;;;28.95;14.52;;;15.50;99.90;;;;;;5005437;28;20457;-67
2021/08/01 05:28:00;;;;;;;28.13;14.52;;;15.50;99.90;;;;;;5004021;28;20032;-67
2021/08/01 05:30:26;;;;;;;30.27;14.70;;;15.60;99.90;;;;;;5001203;28;20028;-67
2021/08/01 05:32:52;;;;;;;33.83;15.23;;;15.60;99.90;;;;;;5004600;28;20076;-67
2021/08/01 05:35:17;;;;;;;33.40;14.75;;;15.60;99.90;;;;;;5002420;28;20099;-67
2021/08/01 05:37:43;;;;;;;30.58;14.52;;;15.60;99.90;;;;;;4986341;28;20038;-68
2021/08/01 05:40:10;;;;;;;30.67;14.57;;;15.70;99.90;;;;;;5004511;28;20596;-68
2021/08/01 05:42:37;;;;;;;30.83;13.10;;;15.70;99.90;;;;;;5004307;28;20077;-68
2021/08/01 05:45:03;;;;;;;32.95;14.60;;;15.70;99.90;;;;;;5004497;28;20451;-68
2021/08/01 05:47:29;;;;;;;27.23;13.90;;;15.70;99.90;;;;;;5004868;28;20522;-68
2021/08/01 05:49:55;;;;;;;32.90;14.68;;;15.80;99.90;;;;;;5005517;28;20034;-68
2021/08/01 05:52:20;;;;;;;28.23;14.00;;;15.80;99.90;;;;;;5004149;28;20422;-67
2021/08/01 05:54:46;;;;;;;29.92;13.70;;;15.90;99.90;;;;;;5005459;28;20032;-67
2021/08/01 05:57:11;;;;;;;27.67;13.02;;;15.90;99.90;;;;;;5002966;28;20053;-67
2021/08/01 05:59:37;;;;;;;32.25;15.35;;;16.00;99.90;;;;;;5005400;28;20029;-67
2021/08/01 06:02:03;;;;;;;26.73;13.85;;;16.00;99.90;;;;;;5003446;28;20469;-68
2021/08/01 06:04:28;;;;;;;25.25;12.95;;;16.00;99.90;;;;;;5005204;28;20068;-67
2021/08/01 06:06:54;;;;;;;28.75;13.68;;;15.90;99.90;;;;;;5005268;28;20029;-67
2021/08/01 06:09:20;;;;;;;24.67;12.15;;;16.10;99.90;;;;;;4985500;28;20023;-67
2021/08/01 06:11:45;;;;;;;28.48;12.55;;;16.10;99.90;;;;;;5001182;28;20119;-67
2021/08/01 06:14:11;;;;;;;25.63;11.73;;;16.00;99.90;;;;;;5002446;28;20363;-67
2021/08/01 06:16:36;;;;;;;25.35;12.68;;;16.10;99.90;;;;;;5008700;28;20042;-67
2021/08/01 06:19:02;;;;;;;30.15;13.32;;;16.10;99.90;;;;;;5001617;28;20029;-67
2021/08/01 06:21:28;;;;;;;23.08;11.23;;;16.10;99.90;;;;;;5007567;28;20606;-67
2021/08/01 06:23:54;;;;;;;23.23;12.15;;;16.20;99.90;;;;;;5008504;28;20033;-67
2021/08/01 06:26:22;;;;;;;24.73;12.00;;;16.10;99.90;;;;;;5001469;28;20500;-67
2021/08/01 06:28:49;;;;;;;23.77;10.15;;;16.10;99.90;;;;;;5004093;28;20343;-67
2021/08/01 06:31:15;;;;;;;26.52;12.63;;;16.10;99.90;;;;;;5007540;28;20113;-67
2021/08/01 06:33:41;;;;;;;27.20;12.88;;;16.00;99.90;;;;;;5008431;28;20108;-67
2021/08/01 06:36:11;;;;;;;28.25;12.85;;;16.20;99.90;;;;;;5007854;28;20026;-67
2021/08/01 06:38:39;;;;;;;24.50;12.55;;;16.20;99.90;;;;;;5008379;28;20153;-67
2021/08/01 06:41:05;;;;;;;24.73;12.95;;;16.40;99.90;;;;;;5006080;28;20034;-67
2021/08/01 06:43:31;;;;;;;24.60;12.65;;;16.40;99.90;;;;;;5004671;28;20030;-67
2021/08/01 06:45:57;;;;;;;26.70;12.60;;;16.40;99.90;;;;;;5007376;28;20108;-67
2021/08/01 06:48:22;;;;;;;18.23;8.20;;;16.40;99.90;;;;;;5008089;28;20108;-67
2021/08/01 06:50:49;;;;;;;24.20;12.40;;;16.30;99.90;;;;;;5007690;28;20077;-67
2021/08/01 06:53:14;;;;;;;24.27;12.77;;;16.30;99.90;;;;;;5006228;28;20555;-68
2021/08/01 06:55:40;;;;;;;22.65;11.73;;;16.30;99.90;;;;;;5005875;28;20030;-69
2021/08/01 06:58:06;;;;;;;23.92;12.55;;;16.40;99.90;;;;;;4992468;28;20034;-69
2021/08/01 07:00:31;;;;;;;21.83;11.25;;;16.50;99.90;;;;;;4993289;28;20033;-68
2021/08/01 07:02:59;;;;;;;23.75;11.13;;;16.70;99.90;;;;;;5006906;28;20152;-68
2021/08/01 07:05:27;;;;;;;24.45;11.85;;;16.70;99.90;;;;;;5007573;28;20449;-68
2021/08/01 07:07:53;;;;;;;22.02;11.43;;;16.70;99.90;;;;;;5006732;28;20488;-68
2021/08/01 07:10:19;;;;;;;20.42;10.20;;;16.80;99.90;;;;;;5006775;28;20374;-68
2021/08/01 07:12:45;;;;;;;20.80;10.35;;;17.20;99.90;;;;;;4991043;28;20026;-68
2021/08/01 07:15:23;;;;;;;18.40;9.27;;;17.50;99.90;;;;;;5006384;28;20214;-67
2021/08/01 07:17:49;;;;;;;21.65;9.63;;;17.50;99.90;;;;;;5007689;28;20540;-67
2021/08/01 07:20:15;;;;;;;15.25;7.82;;;17.80;99.90;;;;;;5005222;28;20030;-67
2021/08/01 07:22:41;;;;;;;18.73;8.68;;;17.90;99.90;;;;;;5003361;28;20030;-69
2021/08/01 07:25:08;;;;;;;21.67;8.73;;;17.90;99.90;;;;;;5004002;28;20389;-68
2021/08/01 07:27:34;;;;;;;18.13;7.57;;;18.10;99.90;;;;;;5006536;28;20041;-67
2021/08/01 07:30:00;;;;;;;16.92;9.15;;;18.00;99.90;;;;;;5005750;28;20030;-68
2021/08/01 07:32:25;;;;;;;18.27;9.43;;;18.20;99.90;;;;;;5005850;28;20026;-67
2021/08/01 07:34:51;;;;;;;15.60;7.63;;;18.30;99.90;;;;;;5006732;28;20026;-69
2021/08/01 07:37:17;;;;;;;17.48;8.88;;;18.30;99.90;;;;;;5004149;28;20026;-69
2021/08/01 07:39:44;;;;;;;15.35;8.10;;;18.50;99.90;;;;;;5006497;28;20404;-68
2021/08/01 07:42:10;;;;;;;16.15;7.70;;;18.60;99.90;;;;;;5004416;28;20655;-69
2021/08/01 07:44:48;;;;;;;17.33;6.63;;;18.90;99.90;;;;;;5007556;28;20033;-69
2021/08/01 07:47:17;;;;;;;14.85;6.60;;;19.00;99.90;;;;;;5000183;28;20108;-70
2021/08/01 07:49:48;;;;;;;15.70;7.78;;;18.60;99.90;;;;;;5005003;28;20022;-70
2021/08/01 07:52:15;;;;;;;14.30;7.47;;;18.60;99.90;;;;;;5003446;28;20041;-69
2021/08/01 07:54:40;;;;;;;14.25;7.28;;;19.00;99.90;;;;;;5004654;28;20028;-69
2021/08/01 07:57:08;;;;;;;15.02;6.72;;;19.10;99.90;;;;;;4987334;28;20026;-69
2021/08/01 07:59:37;;;;;;;16.00;6.90;;;18.90;99.90;;;;;;5003848;28;20037;-69
2021/08/01 08:02:02;;;;;;;10.73;5.25;;;19.00;99.90;;;;;;5003363;28;20030;-68
2021/08/01 08:04:28;;;;;;;12.02;6.43;;;19.20;99.90;;;;;;5005165;28;20773;-69
2021/08/01 08:06:54;;;;;;;11.45;5.90;;;19.50;99.90;;;;;;4988513;28;20026;-69
2021/08/01 08:09:21;;;;;;;9.65;4.43;;;19.50;99.90;;;;;;5001926;28;20030;-68
2021/08/01 08:11:48;;;;;;;11.63;5.95;;;18.90;99.90;;;;;;5002576;28;20025;-69
2021/08/01 08:14:14;;;;;;;11.43;5.35;;;18.70;99.90;;;;;;5006006;28;20484;-68
2021/08/01 08:16:41;;;;;;;14.43;6.63;;;18.60;99.90;;;;;;4986015;28;20127;-68
2021/08/01 08:19:07;;;;;;;11.52;5.28;;;18.70;99.90;;;;;;5003439;28;20083;-68
2021/08/01 08:21:32;;;;;;;10.88;4.82;;;18.90;99.90;;;;;;5003223;28;20042;-68
2021/08/01 08:23:59;;;;;;;13.30;5.30;;;19.20;99.90;;;;;;5001301;28;20553;-68
2021/08/01 08:26:24;;;;;;;11.52;5.88;;;19.00;99.90;;;;;;5003236;28;20100;-68
2021/08/01 08:28:50;;;;;;;11.05;5.15;;;19.00;99.90;;;;;;5006008;28;20032;-69
2021/08/01 08:31:16;;;;;;;11.40;5.30;;;19.60;99.90;;;;;;5003832;28;20060;-69
2021/08/01 08:33:42;;;;;;;9.60;4.80;;;19.80;99.90;;;;;;5004812;28;20058;-68
2021/08/01 08:36:09;;;;;;;12.63;5.50;;;19.50;99.90;;;;;;4986902;28;20026;-68
2021/08/01 08:38:35;;;;;;;9.85;4.60;;;18.40;99.90;;;;;;5002837;28;20028;-68
2021/08/01 08:41:00;;;;;;;12.48;5.10;;;19.20;99.90;;;;;;5004950;28;20037;-68
2021/08/01 08:43:26;;;;;;;11.02;5.47;;;19.50;99.90;;;;;;5005492;28;20029;-68
2021/08/01 08:45:53;;;;;;;10.38;4.50;;;19.60;99.90;;;;;;5005954;28;20022;-68
2021/08/01 08:48:21;;;;;;;9.63;4.22;;;20.80;99.90;;;;;;5005169;28;20449;-69
2021/08/01 08:50:49;;;;;;;9.52;4.43;;;21.20;99.90;;;;;;5005061;28;20442;-69
2021/08/01 08:53:19;;;;;;;7.00;3.42;;;21.00;99.90;;;;;;5004873;28;20544;-69
2021/08/01 08:55:47;;;;;;;9.35;4.25;;;20.40;99.90;;;;;;5004495;28;20041;-69
2021/08/01 08:58:18;;;;;;;11.45;4.00;;;21.50;99.90;;;;;;5005136;28;20026;-69
2021/08/01 09:00:44;;;;;;;12.02;4.55;;;21.60;99.90;;;;;;5003798;28;20041;-69
2021/08/01 09:03:09;;;;;;;9.52;4.35;;;21.00;99.90;;;;;;5002472;28;20470;-69
2021/08/01 09:05:35;;;;;;;13.75;4.13;;;21.10;99.90;;;;;;5004866;28;20065;-69
2021/08/01 09:08:02;;;;;;;10.80;4.80;;;20.40;99.90;;;;;;4990003;28;20041;-69
2021/08/01 09:10:30;;;;;;;8.43;3.50;;;20.80;99.90;;;;;;5005335;28;20025;-69
2021/08/01 09:12:56;;;;;;;9.15;4.35;;;22.00;99.90;;;;;;5004960;28;20026;-69
2021/08/01 09:15:24;;;;;;;7.65;3.30;;;22.00;99.90;;;;;;5004883;28;20030;-68
2021/08/01 09:17:55;;;;;;;10.23;3.70;;;21.80;99.90;;;;;;5002716;28;20081;-68
2021/08/01 09:20:25;;;;;;;7.00;2.67;;;21.60;99.90;;;;;;5003437;28;20573;-69
2021/08/01 09:23:08;;;;;;;4.90;2.25;;;21.20;99.90;;;;;;5002787;28;20076;-69
2021/08/01 09:25:42;;;;;;;9.65;3.45;;;20.70;99.90;;;;;;5003968;28;20042;-68
2021/08/01 09:28:16;;;;;;;9.00;3.00;;;21.80;99.90;;;;;;4999102;28;20030;-69
2021/08/01 09:30:46;;;;;;;6.88;2.53;;;23.10;99.90;;;;;;5003447;28;20057;-69
2021/08/01 09:33:11;;;;;;;7.90;3.05;;;23.10;99.90;;;;;;4997721;28;20101;-69
2021/08/01 09:35:38;;;;;;;7.28;2.45;;;22.70;99.90;;;;;;5008052;28;20105;-69
2021/08/01 09:38:05;;;;;;;7.68;2.97;;;21.10;99.90;;;;;;5004338;28;20026;-69
2021/08/01 09:40:35;;;;;;;6.35;2.65;;;20.20;99.90;;;;;;5002234;28;20062;-68
2021/08/01 09:43:09;;;;;;;8.60;3.30;;;19.70;99.90;;;;;;5003460;28;20037;-69
2021/08/01 09:45:35;;;;;;;9.48;3.10;;;19.90;99.90;;;;;;5000360;28;20385;-69
2021/08/01 09:48:18;;;;;;;8.77;3.08;;;21.10;99.90;;;;;;4999587;28;20025;-69
2021/08/01 09:50:59;;;;;;;9.52;3.30;;;22.60;99.90;;;;;;5009196;28;20030;-68
2021/08/01 09:53:26;;;;;;;6.70;2.60;;;23.20;99.90;;;;;;5007747;28;20034;-69
2021/08/01 09:56:11;;;;;;;5.78;2.33;;;22.90;99.90;;;;;;5008667;28;20022;-69
2021/08/01 09:58:37;;;;;;;6.30;2.58;;;21.30;99.90;;;;;;5008621;28;20532;-69
2021/08/01 10:01:03;;;;;;;8.40;2.40;;;21.20;99.90;;;;;;5007452;28;20026;-69
2021/08/01 10:03:43;;;;;;;7.80;2.22;;;21.00;99.90;;;;;;5014821;28;20037;-68
2021/08/01 10:06:29;;;;;;;7.82;2.70;;;21.30;99.90;;;;;;4999817;28;20029;-69
2021/08/01 10:08:55;;;;;;;4.88;1.80;;;22.40;99.90;;;;;;5009255;28;20041;-69
2021/08/01 10:11:21;;;;;;;6.03;2.20;;;22.30;99.90;;;;;;5004131;28;20063;-69
2021/08/01 10:13:50;;;;;;;6.47;2.30;;;22.90;99.90;;;;;;5007900;28;20035;-69
2021/08/01 10:16:16;;;;;;;9.25;2.50;;;22.80;99.90;;;;;;5004015;28;20053;-69
2021/08/01 10:18:44;;;;;;;5.82;1.85;;;22.50;99.90;;;;;;5007199;28;20057;-69
2021/08/01 10:21:13;;;;;;;5.95;2.50;;;21.40;99.90;;;;;;4989312;28;20405;-69
2021/08/01 10:23:43;;;;;;;9.70;2.60;;;21.00;99.90;;;;;;5005309;28;20064;-69
2021/08/01 10:26:09;;;;;;;6.85;2.42;;;20.90;99.90;;;;;;5005303;28;20172;-69
2021/08/01 10:28:40;;;;;;;5.32;1.60;;;22.70;99.90;;;;;;5003416;28;20125;-69
2021/08/01 10:31:10;;;;;;;3.88;1.67;;;23.30;99.90;;;;;;4984309;28;20080;-69
2021/08/01 10:33:51;;;;;;;9.00;2.35;;;23.30;99.90;;;;;;5004417;28;20034;-69
2021/08/01 10:36:24;;;;;;;6.40;2.33;;;23.40;99.90;;;;;;4998061;28;20053;-70
2021/08/01 10:38:51;;;;;;;5.88;2.40;;;24.80;99.90;;;;;;5002344;28;20021;-70
2021/08/01 10:41:21;;;;;;;7.10;2.25;;;25.20;98.80;;;;;;4998580;28;20026;-69
2021/08/01 10:43:48;;;;;;;7.63;2.05;;;24.60;99.80;;;;;;4986824;28;20030;-69
2021/08/01 10:46:18;;;;;;;5.90;2.30;;;24.00;99.90;;;;;;5005751;28;20096;-69
2021/08/01 10:48:45;;;;;;;5.70;1.95;;;23.90;99.90;;;;;;5004714;28;20025;-69
2021/08/01 10:51:11;;;;;;;5.93;2.17;;;22.30;99.90;;;;;;5002774;28;20490;-69
2021/08/01 10:53:36;;;;;;;8.15;2.42;;;22.80;99.90;;;;;;5005334;28;20033;-69
2021/08/01 10:56:17;;;;;;;6.65;2.70;;;24.20;99.90;;;;;;4998260;28;20038;-69
2021/08/01 10:58:43;;;;;;;6.35;2.60;;;23.40;99.90;;;;;;5003683;28;20037;-69
2021/08/01 11:01:09;;;;;;;7.88;2.50;;;23.40;99.90;;;;;;5004166;28;20056;-69
2021/08/01 11:03:37;;;;;;;6.45;2.55;;;23.50;99.90;;;;;;5002657;28;20026;-69
2021/08/01 11:06:04;;;;;;;7.70;2.50;;;23.60;99.90;;;;;;5008299;28;20029;-69
2021/08/01 11:08:31;;;;;;;7.00;2.65;;;24.00;99.90;;;;;;5001826;28;20565;-69
2021/08/01 11:11:16;;;;;;;6.35;2.13;;;25.60;98.10;;;;;;4992821;28;20120;-69
2021/08/01 11:13:48;;;;;;;9.52;2.83;;;25.80;98.20;;;;;;5002597;28;20490;-69
2021/08/01 11:16:35;;;;;;;6.50;2.40;;;24.30;98.10;;;;;;5005399;28;20042;-69
2021/08/01 11:19:32;;;;;;;5.88;2.08;;;24.20;98.10;;;;;;4988591;28;20096;-69
2021/08/01 11:21:57;;;;;;;6.40;2.35;;;23.60;98.70;;;;;;5001350;28;20042;-69
2021/08/01 11:24:23;;;;;;;8.40;2.80;;;24.10;98.60;;;;;;5002014;28;20044;-69
2021/08/01 11:27:22;;;;;;;6.55;2.42;;;22.80;99.00;;;;;;5003777;28;20068;-69
2021/08/01 11:30:02;;;;;;;6.82;2.72;;;23.40;99.00;;;;;;5000294;28;20034;-69
2021/08/01 11:32:29;;;;;;;7.13;2.55;;;23.60;98.40;;;;;;5002320;28;20060;-69
2021/08/01 11:35:14;;;;;;;7.93;2.90;;;24.00;99.00;;;;;;5002204;28;20108;-69
2021/08/01 11:37:41;;;;;;;7.80;2.40;;;23.40;97.80;;;;;;5003702;28;20046;-69
2021/08/01 11:40:08;;;;;;;6.53;2.47;;;24.10;98.50;;;;;;5003568;28;20540;-69
2021/08/01 11:42:33;;;;;;;7.65;2.05;;;24.90;97.20;;;;;;5003564;28;20046;-68
2021/08/01 11:45:01;;;;;;;5.20;2.00;;;24.60;96.20;;;;;;5002479;28;20041;-69
2021/08/01 11:47:28;;;;;;;7.85;2.72;;;25.20;95.80;;;;;;4993988;28;20026;-68
2021/08/01 11:49:54;;;;;;;6.30;2.30;;;25.80;96.00;;;;;;4999886;28;20034;-69
2021/08/01 11:52:34;;;;;;;8.35;2.25;;;25.50;95.60;;;;;;4998866;28;20041;-69
2021/08/01 11:55:00;;;;;;;5.93;2.35;;;26.30;94.80;;;;;;4998435;28;20029;-69
2021/08/01 11:57:30;;;;;;;6.10;2.45;;;26.80;93.70;;;;;;5001425;28;20029;-68
2021/08/01 11:59:56;;;;;;;6.03;2.67;;;26.90;92.40;;;;;;4999526;28;20113;-69
2021/08/01 12:02:22;;;;;;;5.82;2.28;;;27.20;92.60;;;;;;5000874;28;20054;-69
2021/08/01 12:04:56;;;;;;;4.93;2.10;;;26.60;92.30;;;;;;5000214;28;20018;-69
2021/08/01 12:07:23;;;;;;;6.13;2.10;;;27.30;93.00;;;;;;5005525;28;20071;-69
2021/08/01 12:09:49;;;;;;;5.97;2.13;;;27.00;92.30;;;;;;5003632;28;20056;-69
2021/08/01 12:12:27;;;;;;;10.75;2.05;;;27.40;92.00;;;;;;5000327;28;20030;-69
2021/08/01 12:14:54;;;;;;;5.80;2.10;;;26.30;91.40;;;;;;4986502;28;20033;-68
2021/08/01 12:17:19;;;;;;;5.15;2.15;;;26.20;92.00;;;;;;5002728;28;20497;-69
2021/08/01 12:19:51;;;;;;;4.88;1.92;;;26.10;91.60;;;;;;4999246;28;20037;-68
2021/08/01 12:22:22;;;;;;;5.22;1.88;;;26.40;91.00;;;;;;5001384;28;20057;-68
2021/08/01 12:24:49;;;;;;;7.53;2.55;;;25.70;92.10;;;;;;5003178;28;20088;-68
2021/08/01 12:27:34;;;;;;;5.63;2.00;;;24.70;92.80;;;;;;5001767;28;20026;-69
2021/08/01 12:30:07;;;;;;;4.35;1.70;;;25.20;93.20;;;;;;5001740;28;20414;-69
2021/08/01 12:32:38;;;;;;;6.78;2.40;;;26.00;91.60;;;;;;4999896;28;20699;-69
2021/08/01 12:35:16;;;;;;;6.63;2.40;;;25.40;92.20;;;;;;4997737;28;20037;-69
2021/08/01 12:38:02;;;;;;;4.82;1.73;;;25.20;92.60;;;;;;5003446;28;20030;-69
2021/08/01 12:40:37;;;;;;;5.13;2.30;;;24.50;93.60;;;;;;4997068;28;20131;-70
2021/08/01 12:43:08;;;;;;;6.00;2.30;;;26.40;91.90;;;;;;5005459;28;20033;-70